• Join FlightAware (Why Join?)
  • Login
  • US Flag 
04:48PM EST


 

Airport Tracker/Info


-or-


 

Live Flight TrackerFlight Track Log ✈ EGF4393 ✈ 21-Apr-2013 ✈ KORD - KCWA

Flight Track Log - Related Links

Times and Time Zones

All times are in EDT time to prevent confusion due to time zone crossing. See the EGF4393 flight status page for this flight to view local times or setup timezone preferences in your user account.

Time Position Orientation Groundspeed Altitude Reporting Facility
EDT Latitude Longitude Course Direction KTS MPH feet Rate Location/Type
03:44PM 41.9167 -87.8833 324° Northwest 182 209 2,600  Level Chicago TRACON
03:45PM 41.9667 -87.8500 26° Northeast 264 304 4,200 2,220 Climbing Chicago TRACON
03:46PM 42.2410 -87.9894 350° North  Level FlightAware Approximate
03:46PM 42.0500 -87.8500 360° North 274 315 7,100  Level Chicago TRACON
03:47PM 42.3340 -88.0127 350° North  Level FlightAware Approximate
03:47PM 42.1167 -87.8667 349° North 270 311 9,500  Level Chicago TRACON
03:48PM 42.4239 -88.0515 352° North  Level FlightAware Approximate
03:48PM 42.1475 -87.8525 19° North 279 321 10,500  Level Chicago Center
03:49PM 42.5143 -88.0809 324° Northwest  Level FlightAware Approximate
03:49PM 42.2264 -87.8253 14° North 295 339 12,300  Level Chicago Center
03:50PM 42.3119 -87.8264 359° North 307 353 14,400 1,740 Climbing Chicago Center
03:51PM 42.4014 -87.8611 344° North 316 364 15,900 1,200 Climbing Chicago Center
03:52PM 42.4881 -87.9139 336° Northwest 336 387 16,900 840 Climbing Chicago Center
03:53PM 42.5964 -87.9769 337° Northwest 358 412 17,700 480 Climbing Chicago Center
03:54PM 42.6906 -88.0428 333° Northwest 378 435 18,000 120 Climbing Chicago Center
03:55PM 42.7872 -88.1172 331° Northwest 393 452 18,000  Level Chicago Center
03:56PM 42.8853 -88.1897 332° Northwest 399 459 18,000  Level Chicago Center
03:57PM 42.9819 -88.2619 331° Northwest 397 457 18,000  Level Chicago Center
03:58PM 43.0783 -88.3339 331° Northwest 393 452 18,000  Level Chicago Center
03:59PM 43.1903 -88.4192 331° Northwest 393 452 18,000  Level Chicago Center
04:00PM 43.2864 -88.4931 331° Northwest 394 453 18,000  Level Chicago Center
04:01PM 43.3833 -88.5697 330° Northwest 394 453 18,000  Level Chicago Center
04:02PM 43.4839 -88.6458 331° Northwest 398 458 18,000  Level Chicago Center
04:03PM 43.5808 -88.7203 331° Northwest 396 456 18,000  Level Chicago Center
04:04PM 43.6769 -88.7944 331° Northwest 394 453 18,000  Level Chicago Center
04:05PM 43.7878 -88.8811 331° Northwest 394 453 18,000  Level Minneapolis Center
04:06PM 43.8833 -88.9547 331° Northwest 391 450 18,000 -660 Level Minneapolis Center
04:07PM 43.9764 -89.0269 331° Northwest 385 443 16,700 -1,200 Descending Minneapolis Center
04:09PM 44.0700 -89.1017 330° Northwest 359 413 15,300 -1,200 Descending Minneapolis Center
04:10PM 44.1747 -89.1844 330° Northwest 360 414 14,000 -660 Descending Minneapolis Center
04:11PM 44.2475 -89.2744 318° Northwest 340 391 14,000  Level Minneapolis Center
04:12PM 44.3058 -89.3578 314° West 317 365 14,000  Level Minneapolis Center
04:13PM 44.3697 -89.4517 314° West 319 367 14,000 -840 Level Minneapolis Center
04:14PM 44.4267 -89.5314 315° West 277 319 12,400 -2,100 Descending Minneapolis Center
04:15PM 44.4803 -89.6086 314° West 266 306 9,800 -2,520 Descending Minneapolis Center
04:16PM 44.5200 -89.6922 304° West 247 284 7,300 -2,280 Descending Minneapolis Center
04:17PM 44.5578 -89.7656 306° West 243 280 5,200 -1,140 Descending Minneapolis Center
04:18PM 44.6003 -89.8508 305° West 254 292 5,000 -120 Descending Minneapolis Center
04:19PM 44.6342 -89.9406 298° West 251 289 5,000  Level Minneapolis Center
04:20PM 44.6669 -90.0283 298° West 243 280 5,000 -300 Level Minneapolis Center
04:21PM 44.6967 -90.1006 300° West 213 245 4,500 -480 Descending Minneapolis Center
04:22PM 44.7419 -90.1528 321° Northwest 244 281 4,100 -720 Descending Minneapolis Center
04:23PM 44.7514 -90.0786 80° East 200 230 3,100 -1,020 Descending Minneapolis Center